sensor_id;sensor_type;location;lat;lon;timestamp;P1;P2;P0
31330;PMS5003;34067;39.548;-76.088;2023-07-31T00:00:02;223;223;
31330;PMS5003;34067;39.548;-76.088;2023-07-31T00:02:31;182;182;
31330;PMS5003;34067;39.548;-76.088;2023-07-31T00:04:58;65;65;
31330;PMS5003;34067;39.548;-76.088;2023-07-31T00:07:26;89;89;
31330;PMS5003;34067;39.548;-76.088;2023-07-31T00:09:54;20;20;
31330;PMS5003;34067;39.548;-76.088;2023-07-31T00:12:22;5;5;
31330;PMS5003;34067;39.548;-76.088;2023-07-31T00:14:50;7;7;
31330;PMS5003;34067;39.548;-76.088;2023-07-31T00:17:18;4;4;
31330;PMS5003;34067;39.548;-76.088;2023-07-31T00:19:45;4;4;
31330;PMS5003;34067;39.548;-76.088;2023-07-31T00:22:13;6;5;
31330;PMS5003;34067;39.548;-76.088;2023-07-31T00:24:41;4;4;
31330;PMS5003;34067;39.548;-76.088;2023-07-31T00:27:09;6;6;
31330;PMS5003;34067;39.548;-76.088;2023-07-31T00:29:37;5;5;
31330;PMS5003;34067;39.548;-76.088;2023-07-31T00:32:05;6;5;
31330;PMS5003;34067;39.548;-76.088;2023-07-31T00:34:33;5;5;
31330;PMS5003;34067;39.548;-76.088;2023-07-31T00:37:01;6;6;
31330;PMS5003;34067;39.548;-76.088;2023-07-31T00:39:29;4;4;
31330;PMS5003;34067;39.548;-76.088;2023-07-31T00:41:57;4;4;
31330;PMS5003;34067;39.548;-76.088;2023-07-31T00:44:25;5;5;
31330;PMS5003;34067;39.548;-76.088;2023-07-31T00:46:53;6;5;
31330;PMS5003;34067;39.548;-76.088;2023-07-31T00:49:23;3;3;
31330;PMS5003;34067;39.548;-76.088;2023-07-31T00:51:50;4;3;
31330;PMS5003;34067;39.548;-76.088;2023-07-31T00:54:18;7;5;
31330;PMS5003;34067;39.548;-76.088;2023-07-31T00:56:46;5;5;
31330;PMS5003;34067;39.548;-76.088;2023-07-31T00:59:14;5;5;
31330;PMS5003;34067;39.548;-76.088;2023-07-31T01:01:41;4;4;
31330;PMS5003;34067;39.548;-76.088;2023-07-31T01:04:09;6;6;
31330;PMS5003;34067;39.548;-76.088;2023-07-31T01:06:39;5;4;
31330;PMS5003;34067;39.548;-76.088;2023-07-31T01:09:15;6;4;
31330;PMS5003;34067;39.548;-76.088;2023-07-31T01:11:48;8;8;
31330;PMS5003;34067;39.548;-76.088;2023-07-31T01:14:19;6;6;
31330;PMS5003;34067;39.548;-76.088;2023-07-31T01:16:47;9;9;
31330;PMS5003;34067;39.548;-76.088;2023-07-31T01:19:15;4;4;
31330;PMS5003;34067;39.548;-76.088;2023-07-31T01:21:53;7;7;
31330;PMS5003;34067;39.548;-76.088;2023-07-31T01:24:41;6;5;
31330;PMS5003;34067;39.548;-76.088;2023-07-31T01:27:23;6;6;
31330;PMS5003;34067;39.548;-76.088;2023-07-31T01:29:56;8;7;
31330;PMS5003;34067;39.548;-76.088;2023-07-31T01:32:30;9;8;
31330;PMS5003;34067;39.548;-76.088;2023-07-31T01:34:59;8;8;
31330;PMS5003;34067;39.548;-76.088;2023-07-31T01:37:28;6;6;
31330;PMS5003;34067;39.548;-76.088;2023-07-31T01:39:55;9;9;
31330;PMS5003;34067;39.548;-76.088;2023-07-31T01:42:23;16;16;
31330;PMS5003;34067;39.548;-76.088;2023-07-31T01:44:51;5;5;
31330;PMS5003;34067;39.548;-76.088;2023-07-31T01:47:19;4;4;
31330;PMS5003;34067;39.548;-76.088;2023-07-31T01:49:47;7;7;
31330;PMS5003;34067;39.548;-76.088;2023-07-31T01:52:15;5;5;
31330;PMS5003;34067;39.548;-76.088;2023-07-31T01:54:43;5;5;
31330;PMS5003;34067;39.548;-76.088;2023-07-31T01:57:10;6;6;
31330;PMS5003;34067;39.548;-76.088;2023-07-31T01:59:38;5;5;
31330;PMS5003;34067;39.548;-76.088;2023-07-31T02:02:06;7;7;
31330;PMS5003;34067;39.548;-76.088;2023-07-31T02:04:34;8;7;
31330;PMS5003;34067;39.548;-76.088;2023-07-31T02:07:02;4;4;
31330;PMS5003;34067;39.548;-76.088;2023-07-31T02:09:29;6;6;
31330;PMS5003;34067;39.548;-76.088;2023-07-31T02:11:57;7;7;
31330;PMS5003;34067;39.548;-76.088;2023-07-31T02:14:25;5;5;
31330;PMS5003;34067;39.548;-76.088;2023-07-31T02:16:53;6;5;
31330;PMS5003;34067;39.548;-76.088;2023-07-31T02:19:21;6;6;
31330;PMS5003;34067;39.548;-76.088;2023-07-31T02:21:49;7;6;
31330;PMS5003;34067;39.548;-76.088;2023-07-31T02:24:16;7;7;
31330;PMS5003;34067;39.548;-76.088;2023-07-31T02:26:44;6;6;
31330;PMS5003;34067;39.548;-76.088;2023-07-31T02:29:12;6;5;
31330;PMS5003;34067;39.548;-76.088;2023-07-31T02:31:40;6;6;
31330;PMS5003;34067;39.548;-76.088;2023-07-31T02:34:08;7;6;
31330;PMS5003;34067;39.548;-76.088;2023-07-31T02:36:35;5;5;
31330;PMS5003;34067;39.548;-76.088;2023-07-31T02:39:03;7;6;
31330;PMS5003;34067;39.548;-76.088;2023-07-31T02:41:31;6;6;
31330;PMS5003;34067;39.548;-76.088;2023-07-31T02:43:59;4;4;
31330;PMS5003;34067;39.548;-76.088;2023-07-31T02:46:27;5;5;
31330;PMS5003;34067;39.548;-76.088;2023-07-31T02:48:54;4;4;
31330;PMS5003;34067;39.548;-76.088;2023-07-31T02:51:23;6;6;
31330;PMS5003;34067;39.548;-76.088;2023-07-31T02:53:50;6;6;
31330;PMS5003;34067;39.548;-76.088;2023-07-31T02:56:18;8;8;
31330;PMS5003;34067;39.548;-76.088;2023-07-31T02:58:46;10;10;
31330;PMS5003;34067;39.548;-76.088;2023-07-31T03:01:14;7;7;
31330;PMS5003;34067;39.548;-76.088;2023-07-31T03:03:41;9;9;
31330;PMS5003;34067;39.548;-76.088;2023-07-31T03:06:09;6;6;
31330;PMS5003;34067;39.548;-76.088;2023-07-31T03:08:37;7;7;
31330;PMS5003;34067;39.548;-76.088;2023-07-31T03:11:05;6;6;
31330;PMS5003;34067;39.548;-76.088;2023-07-31T03:13:33;7;7;
31330;PMS5003;34067;39.548;-76.088;2023-07-31T03:16:01;6;6;
31330;PMS5003;34067;39.548;-76.088;2023-07-31T03:18:28;6;6;
31330;PMS5003;34067;39.548;-76.088;2023-07-31T03:20:56;6;6;
31330;PMS5003;34067;39.548;-76.088;2023-07-31T03:23:24;7;7;
31330;PMS5003;34067;39.548;-76.088;2023-07-31T03:25:56;9;8;
31330;PMS5003;34067;39.548;-76.088;2023-07-31T03:28:24;7;7;
31330;PMS5003;34067;39.548;-76.088;2023-07-31T03:30:52;10;10;
31330;PMS5003;34067;39.548;-76.088;2023-07-31T03:33:20;11;10;
31330;PMS5003;34067;39.548;-76.088;2023-07-31T03:35:47;9;9;
31330;PMS5003;34067;39.548;-76.088;2023-07-31T03:38:15;8;8;
31330;PMS5003;34067;39.548;-76.088;2023-07-31T03:40:43;8;8;
31330;PMS5003;34067;39.548;-76.088;2023-07-31T03:43:11;9;8;
31330;PMS5003;34067;39.548;-76.088;2023-07-31T03:45:40;11;9;
31330;PMS5003;34067;39.548;-76.088;2023-07-31T03:48:07;8;8;
31330;PMS5003;34067;39.548;-76.088;2023-07-31T03:50:35;12;10;
31330;PMS5003;34067;39.548;-76.088;2023-07-31T03:53:03;12;10;
31330;PMS5003;34067;39.548;-76.088;2023-07-31T03:55:31;11;9;
31330;PMS5003;34067;39.548;-76.088;2023-07-31T03:57:58;12;11;
31330;PMS5003;34067;39.548;-76.088;2023-07-31T04:00:26;12;11;
31330;PMS5003;34067;39.548;-76.088;2023-07-31T04:02:54;11;11;
31330;PMS5003;34067;39.548;-76.088;2023-07-31T04:05:22;10;10;
31330;PMS5003;34067;39.548;-76.088;2023-07-31T04:07:50;8;8;
31330;PMS5003;34067;39.548;-76.088;2023-07-31T04:10:18;9;9;
31330;PMS5003;34067;39.548;-76.088;2023-07-31T04:12:46;7;6;
31330;PMS5003;34067;39.548;-76.088;2023-07-31T04:15:13;9;8;
31330;PMS5003;34067;39.548;-76.088;2023-07-31T04:17:41;7;7;
31330;PMS5003;34067;39.548;-76.088;2023-07-31T04:20:09;9;9;
31330;PMS5003;34067;39.548;-76.088;2023-07-31T04:22:38;8;8;
31330;PMS5003;34067;39.548;-76.088;2023-07-31T04:25:06;4;4;
31330;PMS5003;34067;39.548;-76.088;2023-07-31T04:27:34;6;6;
31330;PMS5003;34067;39.548;-76.088;2023-07-31T04:30:02;5;4;
31330;PMS5003;34067;39.548;-76.088;2023-07-31T04:32:31;8;8;
31330;PMS5003;34067;39.548;-76.088;2023-07-31T04:34:59;9;8;
31330;PMS5003;34067;39.548;-76.088;2023-07-31T04:37:26;8;8;
31330;PMS5003;34067;39.548;-76.088;2023-07-31T04:39:54;9;8;
31330;PMS5003;34067;39.548;-76.088;2023-07-31T04:42:23;8;8;
31330;PMS5003;34067;39.548;-76.088;2023-07-31T04:44:51;8;7;
31330;PMS5003;34067;39.548;-76.088;2023-07-31T04:47:19;6;6;
31330;PMS5003;34067;39.548;-76.088;2023-07-31T04:49:47;8;7;
31330;PMS5003;34067;39.548;-76.088;2023-07-31T04:52:15;7;7;
31330;PMS5003;34067;39.548;-76.088;2023-07-31T04:54:43;8;8;
31330;PMS5003;34067;39.548;-76.088;2023-07-31T04:57:11;10;9;
31330;PMS5003;34067;39.548;-76.088;2023-07-31T04:59:39;7;7;
31330;PMS5003;34067;39.548;-76.088;2023-07-31T05:03:08;7;7;
31330;PMS5003;34067;39.548;-76.088;2023-07-31T05:05:36;7;7;
31330;PMS5003;34067;39.548;-76.088;2023-07-31T05:08:04;4;4;
31330;PMS5003;34067;39.548;-76.088;2023-07-31T05:10:32;8;8;
31330;PMS5003;34067;39.548;-76.088;2023-07-31T05:13:00;6;6;
31330;PMS5003;34067;39.548;-76.088;2023-07-31T05:15:28;7;7;
31330;PMS5003;34067;39.548;-76.088;2023-07-31T05:17:55;6;6;
31330;PMS5003;34067;39.548;-76.088;2023-07-31T05:20:23;6;6;
31330;PMS5003;34067;39.548;-76.088;2023-07-31T05:22:51;6;6;
31330;PMS5003;34067;39.548;-76.088;2023-07-31T05:25:19;6;6;
31330;PMS5003;34067;39.548;-76.088;2023-07-31T05:27:47;6;6;
31330;PMS5003;34067;39.548;-76.088;2023-07-31T05:30:15;6;6;
31330;PMS5003;34067;39.548;-76.088;2023-07-31T05:32:43;8;7;
31330;PMS5003;34067;39.548;-76.088;2023-07-31T05:35:11;4;4;
31330;PMS5003;34067;39.548;-76.088;2023-07-31T05:37:38;5;5;
31330;PMS5003;34067;39.548;-76.088;2023-07-31T05:40:07;6;5;
31330;PMS5003;34067;39.548;-76.088;2023-07-31T05:42:35;8;7;
31330;PMS5003;34067;39.548;-76.088;2023-07-31T05:45:03;7;6;
31330;PMS5003;34067;39.548;-76.088;2023-07-31T05:47:32;7;7;
31330;PMS5003;34067;39.548;-76.088;2023-07-31T05:50:01;5;5;
31330;PMS5003;34067;39.548;-76.088;2023-07-31T05:52:28;7;7;
31330;PMS5003;34067;39.548;-76.088;2023-07-31T05:54:57;8;7;
31330;PMS5003;34067;39.548;-76.088;2023-07-31T05:57:25;8;7;
31330;PMS5003;34067;39.548;-76.088;2023-07-31T05:59:53;7;7;
31330;PMS5003;34067;39.548;-76.088;2023-07-31T06:02:21;7;7;
31330;PMS5003;34067;39.548;-76.088;2023-07-31T06:04:48;6;6;
31330;PMS5003;34067;39.548;-76.088;2023-07-31T06:07:16;6;6;
31330;PMS5003;34067;39.548;-76.088;2023-07-31T06:09:44;9;8;
31330;PMS5003;34067;39.548;-76.088;2023-07-31T06:12:12;7;7;
31330;PMS5003;34067;39.548;-76.088;2023-07-31T06:14:40;5;5;
31330;PMS5003;34067;39.548;-76.088;2023-07-31T06:17:08;6;6;
31330;PMS5003;34067;39.548;-76.088;2023-07-31T06:19:36;7;7;
31330;PMS5003;34067;39.548;-76.088;2023-07-31T06:22:04;7;7;
31330;PMS5003;34067;39.548;-76.088;2023-07-31T06:24:32;7;7;
31330;PMS5003;34067;39.548;-76.088;2023-07-31T06:27:00;10;9;
31330;PMS5003;34067;39.548;-76.088;2023-07-31T06:29:28;11;11;
31330;PMS5003;34067;39.548;-76.088;2023-07-31T06:31:56;7;6;
31330;PMS5003;34067;39.548;-76.088;2023-07-31T06:34:24;8;8;
31330;PMS5003;34067;39.548;-76.088;2023-07-31T06:36:52;5;5;
31330;PMS5003;34067;39.548;-76.088;2023-07-31T06:39:20;7;7;
31330;PMS5003;34067;39.548;-76.088;2023-07-31T06:41:48;6;6;
31330;PMS5003;34067;39.548;-76.088;2023-07-31T06:44:16;13;9;
31330;PMS5003;34067;39.548;-76.088;2023-07-31T06:46:43;9;8;
31330;PMS5003;34067;39.548;-76.088;2023-07-31T06:49:11;8;8;
31330;PMS5003;34067;39.548;-76.088;2023-07-31T06:51:39;7;6;
31330;PMS5003;34067;39.548;-76.088;2023-07-31T06:54:07;7;7;
31330;PMS5003;34067;39.548;-76.088;2023-07-31T06:56:35;8;8;
31330;PMS5003;34067;39.548;-76.088;2023-07-31T06:59:03;7;7;
31330;PMS5003;34067;39.548;-76.088;2023-07-31T07:01:31;6;6;
31330;PMS5003;34067;39.548;-76.088;2023-07-31T07:03:59;7;7;
31330;PMS5003;34067;39.548;-76.088;2023-07-31T07:06:26;7;7;
31330;PMS5003;34067;39.548;-76.088;2023-07-31T07:08:54;7;7;
31330;PMS5003;34067;39.548;-76.088;2023-07-31T07:11:22;8;8;
31330;PMS5003;34067;39.548;-76.088;2023-07-31T07:13:50;6;5;
31330;PMS5003;34067;39.548;-76.088;2023-07-31T07:16:18;7;7;
31330;PMS5003;34067;39.548;-76.088;2023-07-31T07:18:45;7;7;
31330;PMS5003;34067;39.548;-76.088;2023-07-31T07:21:13;7;7;
31330;PMS5003;34067;39.548;-76.088;2023-07-31T07:23:41;7;7;
31330;PMS5003;34067;39.548;-76.088;2023-07-31T07:26:09;9;8;
31330;PMS5003;34067;39.548;-76.088;2023-07-31T07:28:37;7;7;
31330;PMS5003;34067;39.548;-76.088;2023-07-31T07:31:05;9;7;
31330;PMS5003;34067;39.548;-76.088;2023-07-31T07:33:33;7;7;
31330;PMS5003;34067;39.548;-76.088;2023-07-31T07:36:00;7;7;
31330;PMS5003;34067;39.548;-76.088;2023-07-31T07:38:28;6;6;
31330;PMS5003;34067;39.548;-76.088;2023-07-31T07:40:56;5;5;
31330;PMS5003;34067;39.548;-76.088;2023-07-31T07:43:24;7;7;
31330;PMS5003;34067;39.548;-76.088;2023-07-31T07:45:52;6;6;
31330;PMS5003;34067;39.548;-76.088;2023-07-31T07:48:20;8;7;
31330;PMS5003;34067;39.548;-76.088;2023-07-31T07:50:48;6;6;
31330;PMS5003;34067;39.548;-76.088;2023-07-31T07:53:16;6;6;
31330;PMS5003;34067;39.548;-76.088;2023-07-31T07:55:44;8;7;
31330;PMS5003;34067;39.548;-76.088;2023-07-31T07:58:12;6;6;
31330;PMS5003;34067;39.548;-76.088;2023-07-31T08:00:41;5;5;
31330;PMS5003;34067;39.548;-76.088;2023-07-31T08:03:08;7;7;
31330;PMS5003;34067;39.548;-76.088;2023-07-31T08:05:36;7;7;
31330;PMS5003;34067;39.548;-76.088;2023-07-31T08:08:04;7;7;
31330;PMS5003;34067;39.548;-76.088;2023-07-31T08:10:32;6;6;
31330;PMS5003;34067;39.548;-76.088;2023-07-31T08:13:00;6;6;
31330;PMS5003;34067;39.548;-76.088;2023-07-31T08:15:28;7;6;
31330;PMS5003;34067;39.548;-76.088;2023-07-31T08:17:56;7;7;
31330;PMS5003;34067;39.548;-76.088;2023-07-31T08:20:24;7;7;
31330;PMS5003;34067;39.548;-76.088;2023-07-31T08:22:53;7;7;
31330;PMS5003;34067;39.548;-76.088;2023-07-31T08:25:22;7;7;
31330;PMS5003;34067;39.548;-76.088;2023-07-31T08:27:50;5;5;
31330;PMS5003;34067;39.548;-76.088;2023-07-31T08:30:18;7;7;
31330;PMS5003;34067;39.548;-76.088;2023-07-31T08:32:45;7;6;
31330;PMS5003;34067;39.548;-76.088;2023-07-31T08:35:13;5;5;
31330;PMS5003;34067;39.548;-76.088;2023-07-31T08:37:41;5;5;
31330;PMS5003;34067;39.548;-76.088;2023-07-31T08:40:09;6;6;
31330;PMS5003;34067;39.548;-76.088;2023-07-31T08:42:43;6;6;
31330;PMS5003;34067;39.548;-76.088;2023-07-31T08:45:13;7;6;
31330;PMS5003;34067;39.548;-76.088;2023-07-31T08:47:44;8;8;
31330;PMS5003;34067;39.548;-76.088;2023-07-31T08:50:14;7;7;
31330;PMS5003;34067;39.548;-76.088;2023-07-31T08:52:43;9;8;
31330;PMS5003;34067;39.548;-76.088;2023-07-31T08:55:13;5;5;
31330;PMS5003;34067;39.548;-76.088;2023-07-31T08:57:41;6;6;
31330;PMS5003;34067;39.548;-76.088;2023-07-31T09:00:11;6;6;
31330;PMS5003;34067;39.548;-76.088;2023-07-31T09:02:41;7;7;
31330;PMS5003;34067;39.548;-76.088;2023-07-31T09:05:13;7;6;
31330;PMS5003;34067;39.548;-76.088;2023-07-31T09:07:41;7;7;
31330;PMS5003;34067;39.548;-76.088;2023-07-31T09:10:12;6;6;
31330;PMS5003;34067;39.548;-76.088;2023-07-31T09:12:40;6;6;
31330;PMS5003;34067;39.548;-76.088;2023-07-31T09:15:08;6;6;
31330;PMS5003;34067;39.548;-76.088;2023-07-31T09:17:37;8;8;
31330;PMS5003;34067;39.548;-76.088;2023-07-31T09:20:13;6;6;
31330;PMS5003;34067;39.548;-76.088;2023-07-31T09:22:43;7;7;
31330;PMS5003;34067;39.548;-76.088;2023-07-31T09:25:15;6;6;
31330;PMS5003;34067;39.548;-76.088;2023-07-31T09:27:47;7;7;
31330;PMS5003;34067;39.548;-76.088;2023-07-31T09:30:17;7;7;
31330;PMS5003;34067;39.548;-76.088;2023-07-31T09:32:46;6;6;
31330;PMS5003;34067;39.548;-76.088;2023-07-31T09:35:27;7;7;
31330;PMS5003;34067;39.548;-76.088;2023-07-31T09:37:57;5;5;
31330;PMS5003;34067;39.548;-76.088;2023-07-31T09:40:27;8;7;
31330;PMS5003;34067;39.548;-76.088;2023-07-31T09:42:56;7;6;
31330;PMS5003;34067;39.548;-76.088;2023-07-31T09:45:25;7;7;
31330;PMS5003;34067;39.548;-76.088;2023-07-31T09:47:53;6;5;
31330;PMS5003;34067;39.548;-76.088;2023-07-31T09:50:23;6;6;
31330;PMS5003;34067;39.548;-76.088;2023-07-31T09:52:52;7;6;
31330;PMS5003;34067;39.548;-76.088;2023-07-31T09:55:19;6;6;
31330;PMS5003;34067;39.548;-76.088;2023-07-31T09:57:48;6;6;
31330;PMS5003;34067;39.548;-76.088;2023-07-31T10:00:17;5;5;
31330;PMS5003;34067;39.548;-76.088;2023-07-31T10:02:47;6;6;
31330;PMS5003;34067;39.548;-76.088;2023-07-31T10:05:17;5;5;
31330;PMS5003;34067;39.548;-76.088;2023-07-31T10:07:48;7;7;
31330;PMS5003;34067;39.548;-76.088;2023-07-31T10:10:20;6;6;
31330;PMS5003;34067;39.548;-76.088;2023-07-31T10:12:49;6;6;
31330;PMS5003;34067;39.548;-76.088;2023-07-31T10:15:18;6;6;
31330;PMS5003;34067;39.548;-76.088;2023-07-31T10:17:48;6;6;
31330;PMS5003;34067;39.548;-76.088;2023-07-31T10:20:17;6;6;
31330;PMS5003;34067;39.548;-76.088;2023-07-31T10:22:45;7;6;
31330;PMS5003;34067;39.548;-76.088;2023-07-31T10:25:15;7;7;
31330;PMS5003;34067;39.548;-76.088;2023-07-31T10:27:42;6;6;
31330;PMS5003;34067;39.548;-76.088;2023-07-31T10:30:12;7;7;
31330;PMS5003;34067;39.548;-76.088;2023-07-31T10:32:43;7;7;
31330;PMS5003;34067;39.548;-76.088;2023-07-31T10:35:14;7;7;
31330;PMS5003;34067;39.548;-76.088;2023-07-31T10:37:43;6;6;
31330;PMS5003;34067;39.548;-76.088;2023-07-31T10:40:12;4;4;
31330;PMS5003;34067;39.548;-76.088;2023-07-31T10:42:46;6;6;
31330;PMS5003;34067;39.548;-76.088;2023-07-31T10:45:24;5;5;
31330;PMS5003;34067;39.548;-76.088;2023-07-31T10:47:58;6;6;
31330;PMS5003;34067;39.548;-76.088;2023-07-31T10:50:26;5;5;
31330;PMS5003;34067;39.548;-76.088;2023-07-31T10:52:56;8;6;
31330;PMS5003;34067;39.548;-76.088;2023-07-31T10:55:25;7;7;
31330;PMS5003;34067;39.548;-76.088;2023-07-31T10:57:55;4;4;
31330;PMS5003;34067;39.548;-76.088;2023-07-31T11:00:26;7;7;
31330;PMS5003;34067;39.548;-76.088;2023-07-31T11:02:57;7;7;
31330;PMS5003;34067;39.548;-76.088;2023-07-31T11:06:30;4;4;
31330;PMS5003;34067;39.548;-76.088;2023-07-31T11:08:58;8;8;
31330;PMS5003;34067;39.548;-76.088;2023-07-31T11:11:26;6;6;
31330;PMS5003;34067;39.548;-76.088;2023-07-31T11:13:54;6;6;
31330;PMS5003;34067;39.548;-76.088;2023-07-31T11:16:23;6;6;
31330;PMS5003;34067;39.548;-76.088;2023-07-31T11:18:53;6;6;
31330;PMS5003;34067;39.548;-76.088;2023-07-31T11:21:21;7;7;
31330;PMS5003;34067;39.548;-76.088;2023-07-31T11:23:52;7;6;
31330;PMS5003;34067;39.548;-76.088;2023-07-31T11:26:23;8;7;
31330;PMS5003;34067;39.548;-76.088;2023-07-31T11:28:52;8;6;
31330;PMS5003;34067;39.548;-76.088;2023-07-31T11:31:19;7;7;
31330;PMS5003;34067;39.548;-76.088;2023-07-31T11:33:47;7;7;
31330;PMS5003;34067;39.548;-76.088;2023-07-31T11:36:16;7;7;
31330;PMS5003;34067;39.548;-76.088;2023-07-31T11:38:45;7;6;
31330;PMS5003;34067;39.548;-76.088;2023-07-31T11:41:14;7;7;
31330;PMS5003;34067;39.548;-76.088;2023-07-31T11:43:42;10;9;
31330;PMS5003;34067;39.548;-76.088;2023-07-31T11:46:10;7;7;
31330;PMS5003;34067;39.548;-76.088;2023-07-31T11:48:38;9;9;
31330;PMS5003;34067;39.548;-76.088;2023-07-31T11:51:08;7;7;
31330;PMS5003;34067;39.548;-76.088;2023-07-31T11:53:38;10;9;
31330;PMS5003;34067;39.548;-76.088;2023-07-31T11:56:10;8;8;
31330;PMS5003;34067;39.548;-76.088;2023-07-31T11:58:40;7;7;
31330;PMS5003;34067;39.548;-76.088;2023-07-31T12:01:10;11;11;
31330;PMS5003;34067;39.548;-76.088;2023-07-31T12:03:38;12;12;
31330;PMS5003;34067;39.548;-76.088;2023-07-31T12:06:06;8;8;
31330;PMS5003;34067;39.548;-76.088;2023-07-31T12:08:34;9;9;
31330;PMS5003;34067;39.548;-76.088;2023-07-31T12:11:04;8;8;
31330;PMS5003;34067;39.548;-76.088;2023-07-31T12:13:33;11;10;
31330;PMS5003;34067;39.548;-76.088;2023-07-31T12:16:01;11;10;
31330;PMS5003;34067;39.548;-76.088;2023-07-31T12:18:34;9;9;
31330;PMS5003;34067;39.548;-76.088;2023-07-31T12:21:04;9;9;
31330;PMS5003;34067;39.548;-76.088;2023-07-31T12:23:33;9;9;
31330;PMS5003;34067;39.548;-76.088;2023-07-31T12:26:03;10;9;
31330;PMS5003;34067;39.548;-76.088;2023-07-31T12:28:35;8;8;
31330;PMS5003;34067;39.548;-76.088;2023-07-31T12:31:04;6;6;
31330;PMS5003;34067;39.548;-76.088;2023-07-31T12:33:33;7;6;
31330;PMS5003;34067;39.548;-76.088;2023-07-31T12:36:03;9;9;
31330;PMS5003;34067;39.548;-76.088;2023-07-31T12:38:33;7;7;
31330;PMS5003;34067;39.548;-76.088;2023-07-31T12:41:00;10;9;
31330;PMS5003;34067;39.548;-76.088;2023-07-31T12:43:28;9;8;
31330;PMS5003;34067;39.548;-76.088;2023-07-31T12:45:56;7;7;
31330;PMS5003;34067;39.548;-76.088;2023-07-31T12:48:24;6;6;
31330;PMS5003;34067;39.548;-76.088;2023-07-31T12:50:51;8;8;
31330;PMS5003;34067;39.548;-76.088;2023-07-31T12:53:19;9;8;
31330;PMS5003;34067;39.548;-76.088;2023-07-31T12:55:47;7;6;
31330;PMS5003;34067;39.548;-76.088;2023-07-31T12:58:15;8;8;
31330;PMS5003;34067;39.548;-76.088;2023-07-31T13:00:43;7;7;
31330;PMS5003;34067;39.548;-76.088;2023-07-31T13:03:11;7;7;
31330;PMS5003;34067;39.548;-76.088;2023-07-31T13:05:38;7;7;
31330;PMS5003;34067;39.548;-76.088;2023-07-31T13:08:06;8;7;
31330;PMS5003;34067;39.548;-76.088;2023-07-31T13:10:34;7;7;
31330;PMS5003;34067;39.548;-76.088;2023-07-31T13:13:02;9;9;
31330;PMS5003;34067;39.548;-76.088;2023-07-31T13:15:30;8;8;
31330;PMS5003;34067;39.548;-76.088;2023-07-31T13:17:58;8;8;
31330;PMS5003;34067;39.548;-76.088;2023-07-31T13:20:25;9;9;
31330;PMS5003;34067;39.548;-76.088;2023-07-31T13:22:53;7;7;
31330;PMS5003;34067;39.548;-76.088;2023-07-31T13:25:22;8;8;
31330;PMS5003;34067;39.548;-76.088;2023-07-31T13:27:50;6;6;
31330;PMS5003;34067;39.548;-76.088;2023-07-31T13:30:17;8;8;
31330;PMS5003;34067;39.548;-76.088;2023-07-31T13:32:45;9;9;
31330;PMS5003;34067;39.548;-76.088;2023-07-31T13:35:13;7;6;
31330;PMS5003;34067;39.548;-76.088;2023-07-31T13:37:41;8;8;
31330;PMS5003;34067;39.548;-76.088;2023-07-31T13:40:09;11;9;
31330;PMS5003;34067;39.548;-76.088;2023-07-31T13:42:37;8;7;
31330;PMS5003;34067;39.548;-76.088;2023-07-31T13:45:05;8;8;
31330;PMS5003;34067;39.548;-76.088;2023-07-31T13:47:34;10;9;
31330;PMS5003;34067;39.548;-76.088;2023-07-31T13:50:02;7;7;
31330;PMS5003;34067;39.548;-76.088;2023-07-31T13:52:30;7;7;
31330;PMS5003;34067;39.548;-76.088;2023-07-31T13:54:58;8;7;
31330;PMS5003;34067;39.548;-76.088;2023-07-31T13:57:26;7;7;
31330;PMS5003;34067;39.548;-76.088;2023-07-31T13:59:54;7;7;
31330;PMS5003;34067;39.548;-76.088;2023-07-31T14:02:21;7;7;
31330;PMS5003;34067;39.548;-76.088;2023-07-31T14:04:49;7;7;
31330;PMS5003;34067;39.548;-76.088;2023-07-31T14:07:17;8;8;
31330;PMS5003;34067;39.548;-76.088;2023-07-31T14:09:45;8;7;
31330;PMS5003;34067;39.548;-76.088;2023-07-31T14:12:12;8;7;
31330;PMS5003;34067;39.548;-76.088;2023-07-31T14:14:40;8;8;
31330;PMS5003;34067;39.548;-76.088;2023-07-31T14:17:08;8;6;
31330;PMS5003;34067;39.548;-76.088;2023-07-31T14:19:36;8;8;
31330;PMS5003;34067;39.548;-76.088;2023-07-31T14:22:04;7;7;
31330;PMS5003;34067;39.548;-76.088;2023-07-31T14:24:32;8;8;
31330;PMS5003;34067;39.548;-76.088;2023-07-31T14:27:00;9;9;
31330;PMS5003;34067;39.548;-76.088;2023-07-31T14:29:29;8;8;
31330;PMS5003;34067;39.548;-76.088;2023-07-31T14:31:57;10;10;
31330;PMS5003;34067;39.548;-76.088;2023-07-31T14:34:25;10;9;
31330;PMS5003;34067;39.548;-76.088;2023-07-31T14:36:53;10;8;
31330;PMS5003;34067;39.548;-76.088;2023-07-31T14:39:21;11;9;
31330;PMS5003;34067;39.548;-76.088;2023-07-31T14:41:49;10;10;
31330;PMS5003;34067;39.548;-76.088;2023-07-31T14:44:17;10;10;
31330;PMS5003;34067;39.548;-76.088;2023-07-31T14:46:45;8;8;
31330;PMS5003;34067;39.548;-76.088;2023-07-31T14:49:13;12;11;
31330;PMS5003;34067;39.548;-76.088;2023-07-31T14:51:42;8;7;
31330;PMS5003;34067;39.548;-76.088;2023-07-31T14:54:09;8;8;
31330;PMS5003;34067;39.548;-76.088;2023-07-31T14:56:37;9;9;
31330;PMS5003;34067;39.548;-76.088;2023-07-31T14:59:05;9;8;
31330;PMS5003;34067;39.548;-76.088;2023-07-31T15:01:33;11;10;
31330;PMS5003;34067;39.548;-76.088;2023-07-31T15:04:00;8;8;
31330;PMS5003;34067;39.548;-76.088;2023-07-31T15:06:28;9;9;
31330;PMS5003;34067;39.548;-76.088;2023-07-31T15:08:56;11;11;
31330;PMS5003;34067;39.548;-76.088;2023-07-31T15:11:24;11;11;
31330;PMS5003;34067;39.548;-76.088;2023-07-31T15:13:52;8;8;
31330;PMS5003;34067;39.548;-76.088;2023-07-31T15:16:20;10;9;
31330;PMS5003;34067;39.548;-76.088;2023-07-31T15:18:48;7;7;
31330;PMS5003;34067;39.548;-76.088;2023-07-31T15:21:16;8;8;
31330;PMS5003;34067;39.548;-76.088;2023-07-31T15:23:44;11;10;
31330;PMS5003;34067;39.548;-76.088;2023-07-31T15:26:11;10;10;
31330;PMS5003;34067;39.548;-76.088;2023-07-31T15:28:39;10;10;
31330;PMS5003;34067;39.548;-76.088;2023-07-31T15:31:08;9;8;
31330;PMS5003;34067;39.548;-76.088;2023-07-31T15:33:35;9;9;
31330;PMS5003;34067;39.548;-76.088;2023-07-31T15:36:03;12;11;
31330;PMS5003;34067;39.548;-76.088;2023-07-31T15:38:31;10;10;
31330;PMS5003;34067;39.548;-76.088;2023-07-31T15:41:00;9;9;
31330;PMS5003;34067;39.548;-76.088;2023-07-31T15:43:28;13;11;
31330;PMS5003;34067;39.548;-76.088;2023-07-31T15:45:55;13;11;
31330;PMS5003;34067;39.548;-76.088;2023-07-31T15:48:23;8;7;
31330;PMS5003;34067;39.548;-76.088;2023-07-31T15:50:51;10;10;
31330;PMS5003;34067;39.548;-76.088;2023-07-31T15:53:19;10;10;
31330;PMS5003;34067;39.548;-76.088;2023-07-31T15:55:47;9;9;
31330;PMS5003;34067;39.548;-76.088;2023-07-31T15:58:15;13;12;
31330;PMS5003;34067;39.548;-76.088;2023-07-31T16:00:43;11;10;
31330;PMS5003;34067;39.548;-76.088;2023-07-31T16:03:11;9;8;
31330;PMS5003;34067;39.548;-76.088;2023-07-31T16:05:38;10;9;
31330;PMS5003;34067;39.548;-76.088;2023-07-31T16:08:06;10;10;
31330;PMS5003;34067;39.548;-76.088;2023-07-31T16:10:34;11;11;
31330;PMS5003;34067;39.548;-76.088;2023-07-31T16:13:02;11;10;
31330;PMS5003;34067;39.548;-76.088;2023-07-31T16:15:29;10;9;
31330;PMS5003;34067;39.548;-76.088;2023-07-31T16:17:57;10;10;
31330;PMS5003;34067;39.548;-76.088;2023-07-31T16:20:25;10;10;
31330;PMS5003;34067;39.548;-76.088;2023-07-31T16:22:54;11;11;